Terminal Aerodrome Forecast
Issued by NWS Jackson, MS

Home | Current Version | Previous Version | Text Only | Print | Product List | Glossary On
Versions: 1 2 3 4 5 6 7 8 9 10 11 12 13
000
FTUS44 KJAN 301130
TAFGWO
TAF
KGWO 301130Z 3012/3112 00000KT P6SM SKC
     FM301400 04007KT P6SM FEW040
     FM301900 01010G18KT P6SM SCT050
     FM310100 01006KT P6SM SKC=

USA.gov is the U.S. government's official web portal to all federal, state and local government web resources and services.